createdAt,value
2019-05-23T00:01:16.691Z,7.66
2019-05-23T00:04:09.467Z,7.63
2019-05-23T00:07:01.847Z,7.60
2019-05-23T00:09:53.825Z,7.60
2019-05-23T00:12:44.300Z,7.53
2019-05-23T00:15:37.341Z,7.56
2019-05-23T00:18:10.337Z,7.45
2019-05-23T00:20:44.519Z,7.45
2019-05-23T00:23:18.003Z,7.45
2019-05-23T00:25:51.506Z,7.38
2019-05-23T00:28:25.031Z,7.35
2019-05-23T00:31:02.290Z,7.43
2019-05-23T00:33:35.436Z,7.34
2019-05-23T00:36:08.020Z,7.34
2019-05-23T00:38:41.522Z,7.33
2019-05-23T00:41:16.304Z,7.31
2019-05-23T00:43:49.323Z,7.24
2019-05-23T00:46:23.530Z,7.12
2019-05-23T00:48:58.542Z,7.12
2019-05-23T00:51:32.290Z,7.19
2019-05-23T00:54:04.857Z,7.12
2019-05-23T00:56:39.282Z,7.12
2019-05-23T00:59:25.861Z,7.08
2019-05-23T01:01:47.295Z,7.08
2019-05-23T01:04:21.018Z,7.03
2019-05-23T01:06:54.346Z,7.02
2019-05-23T01:09:27.769Z,6.81
2019-05-23T01:12:00.580Z,6.81
2019-05-23T01:14:34.497Z,6.90
2019-05-23T01:17:08.754Z,7.04
2019-05-23T01:19:42.755Z,6.97
2019-05-23T01:22:17.653Z,6.98
2019-05-23T01:24:52.318Z,6.95
2019-05-23T01:27:25.443Z,6.88
2019-05-23T01:29:59.328Z,6.88
2019-05-23T01:32:33.457Z,6.72
2019-05-23T01:35:09.328Z,6.72
2019-05-23T01:37:42.308Z,6.88
2019-05-23T01:40:16.686Z,6.84
2019-05-23T01:42:49.657Z,6.84
2019-05-23T01:45:25.375Z,6.79
2019-05-23T01:47:57.757Z,6.73
2019-05-23T01:50:30.779Z,6.73
2019-05-23T01:53:03.383Z,6.74
2019-05-23T01:55:36.450Z,6.62
2019-05-23T01:58:10.290Z,6.62
2019-05-23T02:00:42.243Z,6.62
2019-05-23T02:03:15.254Z,6.59
2019-05-23T02:05:47.343Z,6.52
2019-05-23T02:08:19.475Z,6.47
2019-05-23T02:10:53.721Z,6.47
2019-05-23T02:13:27.282Z,6.43
2019-05-23T02:16:00.662Z,6.38
2019-05-23T02:18:33.679Z,6.38
2019-05-23T02:21:06.507Z,6.39
2019-05-23T02:23:39.293Z,6.36
2019-05-23T02:26:13.287Z,6.30
2019-05-23T02:28:48.281Z,6.25
2019-05-23T02:31:24.596Z,6.22
2019-05-23T02:33:57.463Z,6.22
2019-05-23T02:36:30.810Z,6.33
2019-05-23T02:39:21.611Z,6.42
2019-05-23T02:41:56.442Z,6.38
2019-05-23T02:44:34.279Z,6.33
2019-05-23T02:47:17.455Z,6.31
2019-05-23T02:49:52.339Z,6.31
2019-05-23T02:52:46.770Z,6.23
2019-05-23T02:55:37.883Z,6.23
2019-05-23T02:58:29.295Z,6.25
2019-05-23T03:01:30.386Z,6.23
2019-05-23T03:04:24.442Z,6.31
2019-05-23T03:06:56.841Z,6.31
2019-05-23T03:09:36.491Z,6.28
2019-05-23T03:12:12.547Z,6.32
2019-05-23T03:14:46.337Z,6.26
2019-05-23T03:17:19.024Z,6.28
2019-05-23T03:19:58.258Z,6.25
2019-05-23T03:22:51.734Z,6.25
2019-05-23T03:25:42.791Z,6.22
2019-05-23T03:28:18.493Z,6.27
2019-05-23T03:31:25.061Z,6.34
2019-05-23T03:33:30.621Z,6.25
2019-05-23T03:36:05.301Z,6.25
2019-05-23T03:38:38.328Z,6.14
2019-05-23T03:41:11.486Z,6.17
2019-05-23T03:43:44.704Z,6.17
2019-05-23T03:46:24.951Z,6.19
2019-05-23T03:48:58.246Z,6.21
2019-05-23T03:51:31.694Z,6.15
2019-05-23T03:54:06.285Z,6.20
2019-05-23T03:56:38.765Z,6.16
2019-05-23T03:59:13.304Z,6.16
2019-05-23T04:01:49.167Z,6.17
2019-05-23T04:04:22.412Z,6.10
2019-05-23T04:06:55.595Z,6.10
2019-05-23T04:09:28.483Z,6.26
2019-05-23T04:12:01.319Z,6.26
2019-05-23T04:14:34.304Z,6.33
2019-05-23T04:17:09.767Z,6.33
2019-05-23T04:19:42.520Z,6.36
2019-05-23T04:22:15.475Z,6.43
2019-05-23T04:24:48.311Z,6.42
2019-05-23T04:27:21.360Z,6.50
2019-05-23T04:29:54.765Z,6.50
2019-05-23T04:35:23.276Z,6.66
2019-05-23T04:37:57.525Z,6.88
2019-05-23T04:40:30.285Z,6.88
2019-05-23T04:43:03.032Z,6.97
2019-05-23T04:45:53.808Z,6.97
2019-05-23T04:48:26.914Z,7.12
2019-05-23T04:51:00.542Z,7.20
2019-05-23T04:53:33.324Z,7.23
2019-05-23T04:56:08.814Z,7.29
2019-05-23T04:58:41.412Z,7.36
2019-05-23T05:01:15.231Z,7.40
2019-05-23T05:03:48.974Z,7.50
2019-05-23T05:06:21.524Z,7.54
2019-05-23T05:08:56.146Z,7.61
2019-05-23T05:11:30.755Z,7.70
2019-05-23T05:16:03.851Z,7.93
2019-05-23T05:18:37.278Z,7.94
2019-05-23T05:21:09.692Z,8.06
2019-05-23T05:23:42.267Z,8.11
2019-05-23T05:26:23.048Z,8.15
2019-05-23T05:28:58.292Z,8.21
2019-05-23T05:31:30.815Z,8.41
2019-05-23T05:34:04.699Z,8.41
2019-05-23T05:36:37.364Z,8.54
2019-05-23T05:39:11.639Z,8.59
2019-05-23T05:41:44.464Z,8.59
2019-05-23T05:44:17.297Z,8.85
2019-05-23T05:46:49.993Z,8.82
2019-05-23T05:49:22.655Z,8.82
2019-05-23T05:51:55.659Z,9.39
2019-05-23T05:54:28.033Z,9.21
2019-05-23T05:57:00.460Z,9.32
2019-05-23T05:59:33.289Z,9.37
2019-05-23T06:02:07.802Z,9.61
2019-05-23T06:04:40.593Z,9.61
2019-05-23T06:07:32.731Z,9.78
2019-05-23T06:10:07.749Z,9.93
2019-05-23T06:12:41.343Z,9.99
2019-05-23T06:15:14.334Z,10.21
2019-05-23T06:17:47.300Z,10.36
2019-05-23T06:20:21.181Z,10.42
2019-05-23T06:22:55.397Z,10.57
2019-05-23T06:25:27.783Z,10.52
2019-05-23T06:28:05.355Z,10.64
2019-05-23T06:30:39.918Z,11.01
2019-05-23T06:33:22.573Z,11.01
2019-05-23T06:35:47.591Z,11.02
2019-05-23T06:38:20.578Z,11.02
2019-05-23T06:40:54.875Z,11.43
2019-05-23T06:43:28.303Z,11.65
2019-05-23T06:46:01.037Z,11.96
2019-05-23T06:48:38.695Z,11.96
2019-05-23T06:51:12.441Z,12.03
2019-05-23T06:53:45.292Z,12.31
2019-05-23T06:56:18.304Z,12.19
2019-05-23T06:58:51.727Z,12.19
2019-05-23T07:01:25.762Z,12.79
2019-05-23T07:03:58.604Z,12.84
2019-05-23T07:06:31.981Z,12.83
2019-05-23T07:09:07.849Z,12.95
2019-05-23T07:11:40.902Z,12.75
2019-05-23T07:14:14.358Z,12.98
2019-05-23T07:16:50.307Z,12.97
2019-05-23T07:19:24.291Z,13.18
2019-05-23T07:21:56.804Z,12.90
2019-05-23T07:24:30.323Z,12.90
2019-05-23T07:27:02.269Z,13.35
2019-05-23T07:29:36.313Z,13.79
2019-05-23T07:32:10.228Z,13.52
2019-05-23T07:34:42.562Z,13.75
2019-05-23T07:37:15.374Z,14.08
2019-05-23T07:39:47.760Z,14.30
2019-05-23T07:42:20.305Z,14.30
2019-05-23T07:44:54.438Z,14.58
2019-05-23T07:47:27.508Z,14.58
2019-05-23T07:49:59.809Z,14.73
2019-05-23T07:52:32.448Z,15.02
2019-05-23T07:55:25.637Z,15.14
2019-05-23T07:57:58.356Z,15.23
2019-05-23T08:00:38.323Z,15.54
2019-05-23T08:03:11.787Z,15.56
2019-05-23T08:05:45.655Z,15.56
2019-05-23T08:08:18.654Z,15.46
2019-05-23T08:10:51.315Z,15.71
2019-05-23T08:13:23.979Z,16.31
2019-05-23T08:16:09.301Z,16.31
2019-05-23T08:18:42.848Z,16.23
2019-05-23T08:21:15.306Z,16.13
2019-05-23T08:23:47.665Z,16.36
2019-05-23T08:26:22.050Z,16.36
2019-05-23T08:29:24.291Z,16.70
2019-05-23T08:31:31.720Z,16.58
2019-05-23T08:34:05.299Z,16.55
2019-05-23T08:36:38.283Z,16.72
2019-05-23T08:39:11.707Z,16.80
2019-05-23T08:41:44.304Z,16.80
2019-05-23T08:44:17.297Z,17.20
2019-05-23T08:46:50.240Z,17.20
2019-05-23T08:49:22.549Z,17.49
2019-05-23T08:51:56.721Z,17.76
2019-05-23T08:54:29.292Z,18.06
2019-05-23T08:57:02.294Z,18.11
2019-05-23T08:59:35.282Z,17.95
2019-05-23T09:02:08.034Z,17.99
2019-05-23T09:05:01.191Z,17.99
2019-05-23T09:07:15.590Z,18.24
2019-05-23T09:09:50.851Z,18.24
2019-05-23T09:12:23.791Z,18.63
2019-05-23T09:14:56.845Z,19.08
2019-05-23T09:17:29.810Z,19.08
2019-05-23T09:20:02.466Z,19.09
2019-05-23T09:22:36.039Z,19.14
2019-05-23T09:25:10.348Z,19.14
2019-05-23T09:27:42.750Z,19.40
2019-05-23T09:30:17.352Z,19.40
2019-05-23T09:32:51.302Z,19.81
2019-05-23T09:35:24.321Z,19.70
2019-05-23T09:37:56.721Z,20.10
2019-05-23T09:40:29.471Z,20.10
2019-05-23T09:43:02.330Z,20.12
2019-05-23T09:45:35.325Z,19.19
2019-05-23T09:48:08.328Z,19.19
2019-05-23T09:50:40.848Z,19.46
2019-05-23T09:53:13.751Z,19.46
2019-05-23T09:55:46.293Z,19.82
2019-05-23T09:58:18.798Z,19.33
2019-05-23T10:00:51.353Z,19.33
2019-05-23T10:06:07.328Z,20.02
2019-05-23T10:08:39.677Z,20.55
2019-05-23T10:11:12.478Z,20.55
2019-05-23T10:13:45.293Z,20.27
2019-05-23T10:16:18.285Z,20.18
2019-05-23T10:18:51.691Z,20.68
2019-05-23T10:21:24.287Z,20.68
2019-05-23T10:23:57.304Z,20.59
2019-05-23T10:26:29.786Z,21.16
2019-05-23T10:29:02.290Z,21.16
2019-05-23T10:31:34.651Z,21.04
2019-05-23T10:34:07.330Z,21.04
2019-05-23T10:36:39.786Z,20.57
2019-05-23T10:39:15.572Z,20.57
2019-05-23T10:41:48.309Z,20.66
2019-05-23T10:44:20.863Z,20.70
2019-05-23T10:46:53.363Z,20.70
2019-05-23T10:49:27.535Z,21.13
2019-05-23T10:52:00.058Z,20.62
2019-05-23T10:54:32.365Z,20.16
2019-05-23T10:57:04.761Z,21.41
2019-05-23T10:59:37.285Z,21.41
2019-05-23T11:02:10.784Z,21.52
2019-05-23T11:04:43.300Z,21.52
2019-05-23T11:07:16.299Z,22.15
2019-05-23T11:09:48.768Z,21.88
2019-05-23T11:12:21.299Z,21.88
2019-05-23T11:14:54.371Z,22.35
2019-05-23T11:17:27.609Z,22.35
2019-05-23T11:20:00.025Z,22.53
2019-05-23T11:22:32.739Z,22.72
2019-05-23T11:25:07.691Z,22.68
2019-05-23T11:27:40.372Z,22.47
2019-05-23T11:30:14.350Z,22.39
2019-05-23T11:32:47.271Z,22.51
2019-05-23T11:35:19.684Z,22.94
2019-05-23T11:37:52.753Z,21.89
2019-05-23T11:40:25.463Z,21.89
2019-05-23T11:42:57.788Z,22.62
2019-05-23T11:45:31.223Z,22.54
2019-05-23T11:48:05.158Z,22.74
2019-05-23T11:52:08.295Z,24.05
2019-05-23T11:54:41.271Z,25.20
2019-05-23T11:57:15.953Z,25.22
2019-05-23T11:59:48.517Z,25.22
2019-05-23T12:02:25.630Z,25.19
2019-05-23T12:04:59.995Z,27.88
2019-05-23T12:07:31.716Z,26.91
2019-05-23T12:10:03.346Z,26.49
2019-05-23T12:12:35.840Z,27.85
2019-05-23T12:15:16.540Z,27.85
2019-05-23T12:17:49.667Z,27.56
2019-05-23T12:20:22.827Z,27.18
2019-05-23T12:22:55.344Z,28.95
2019-05-23T12:25:28.663Z,28.65
2019-05-23T12:28:01.316Z,29.43
2019-05-23T12:30:33.981Z,31.26
2019-05-23T12:33:07.306Z,31.04
2019-05-23T12:35:40.337Z,33.39
2019-05-23T12:38:13.315Z,34.64
2019-05-23T12:40:48.920Z,34.64
2019-05-23T12:43:21.230Z,33.39
2019-05-23T12:45:53.547Z,33.39
2019-05-23T12:48:28.394Z,35.70
2019-05-23T12:51:08.841Z,35.60
2019-05-23T12:53:41.387Z,36.63
2019-05-23T12:56:15.401Z,33.51
2019-05-23T12:58:48.321Z,33.51
2019-05-23T13:01:21.535Z,36.29
2019-05-23T13:03:55.308Z,35.91
2019-05-23T13:06:29.016Z,35.99
2019-05-23T13:09:02.292Z,34.86
2019-05-23T13:11:35.290Z,35.06
2019-05-23T13:14:09.655Z,34.11
2019-05-23T13:16:42.383Z,34.11
2019-05-23T13:19:14.399Z,32.86
2019-05-23T13:21:47.886Z,32.86
2019-05-23T13:24:20.408Z,34.12
2019-05-23T13:26:53.048Z,37.11
2019-05-23T13:29:26.379Z,39.33
2019-05-23T13:31:59.355Z,39.14
2019-05-23T13:34:32.078Z,39.07
2019-05-23T13:37:06.455Z,39.07
2019-05-23T13:39:39.292Z,38.57
2019-05-23T13:42:11.030Z,39.47
2019-05-23T13:44:43.844Z,39.47
2019-05-23T13:47:15.734Z,40.25
2019-05-23T13:49:48.298Z,38.21
2019-05-23T13:52:20.230Z,33.40
2019-05-23T13:54:52.713Z,33.40
2019-05-23T13:57:24.469Z,34.60
2019-05-23T13:59:58.885Z,37.12
2019-05-23T14:02:38.289Z,38.30
2019-05-23T14:05:11.762Z,40.34
2019-05-23T14:07:44.365Z,40.34
2019-05-23T14:10:17.836Z,39.76
2019-05-23T14:12:50.509Z,38.24
2019-05-23T14:15:30.447Z,37.72
2019-05-23T14:18:15.595Z,38.19
2019-05-23T14:20:49.321Z,39.23
2019-05-23T14:23:33.285Z,38.00
2019-05-23T14:26:06.533Z,38.00
2019-05-23T14:28:41.432Z,39.84
2019-05-23T14:31:15.757Z,39.32
2019-05-23T14:34:02.455Z,35.95
2019-05-23T14:36:37.569Z,35.54
2019-05-23T14:39:12.385Z,38.68
2019-05-23T14:41:51.024Z,38.19
2019-05-23T14:44:25.397Z,38.31
2019-05-23T14:47:16.783Z,38.58
2019-05-23T14:49:55.274Z,38.35
2019-05-23T14:52:34.229Z,37.90
2019-05-23T14:55:10.868Z,37.90
2019-05-23T14:57:46.893Z,37.61
2019-05-23T15:00:20.770Z,37.61
2019-05-23T15:02:53.628Z,37.13
2019-05-23T15:05:32.538Z,37.34
2019-05-23T15:08:05.744Z,39.76
2019-05-23T15:10:56.465Z,40.53
2019-05-23T15:13:29.934Z,37.85
2019-05-23T15:16:06.049Z,38.06
2019-05-23T15:18:42.357Z,39.79
2019-05-23T15:21:15.768Z,40.06
2019-05-23T15:41:26.732Z,42.44
2019-05-23T15:44:22.359Z,42.28
2019-05-23T15:46:40.723Z,42.28
2019-05-23T15:49:14.114Z,41.79
2019-05-23T15:51:53.816Z,42.57
2019-05-23T15:54:39.611Z,42.59
2019-05-23T15:57:18.339Z,43.27
2019-05-23T15:59:54.719Z,42.90
2019-05-23T16:02:28.916Z,41.80
2019-05-23T16:05:02.872Z,41.94
2019-05-23T16:08:19.267Z,41.33
2019-05-23T16:10:54.052Z,40.79
2019-05-23T16:13:28.393Z,39.32
2019-05-23T16:16:13.421Z,37.30
2019-05-23T16:18:46.798Z,35.51
2019-05-23T16:21:20.134Z,32.70
2019-05-23T16:23:53.303Z,31.69
2019-05-23T16:26:27.998Z,29.85
2019-05-23T16:29:02.436Z,29.85
2019-05-23T16:31:35.485Z,29.22
2019-05-23T16:34:08.327Z,28.28
2019-05-23T16:36:41.315Z,27.04
2019-05-23T16:39:14.283Z,27.19
2019-05-23T16:41:48.440Z,26.58
2019-05-23T16:44:21.085Z,26.58
2019-05-23T16:46:55.314Z,26.32
2019-05-23T16:49:30.920Z,25.88
2019-05-23T16:52:03.866Z,25.77
2019-05-23T16:54:38.621Z,25.53
2019-05-23T16:57:13.752Z,25.45
2019-05-23T16:59:48.322Z,25.33
2019-05-23T17:02:29.374Z,24.79
2019-05-23T17:05:10.361Z,24.76
2019-05-23T17:07:51.740Z,24.76
2019-05-23T17:10:32.345Z,24.47
2019-05-23T17:13:09.400Z,24.42
2019-05-23T17:15:51.078Z,24.04
2019-05-23T17:18:23.464Z,24.04
2019-05-23T17:21:03.493Z,23.93
2019-05-23T17:23:41.711Z,23.76
2019-05-23T17:26:14.299Z,23.42
2019-05-23T17:28:48.483Z,23.36
2019-05-23T17:31:35.790Z,23.36
2019-05-23T17:34:08.387Z,23.29
2019-05-23T17:36:40.877Z,23.05
2019-05-23T17:39:17.302Z,22.83
2019-05-23T17:41:49.575Z,22.80
2019-05-23T17:44:22.242Z,22.67
2019-05-23T17:46:54.740Z,22.43
2019-05-23T17:49:27.458Z,22.43
2019-05-23T17:52:01.313Z,22.34
2019-05-23T17:54:35.315Z,22.23
2019-05-23T17:57:09.487Z,21.99
2019-05-23T17:59:42.287Z,21.99
2019-05-23T18:02:16.451Z,21.82
2019-05-23T18:04:50.073Z,21.82
2019-05-23T18:07:23.305Z,21.79
2019-05-23T18:09:55.962Z,21.60
2019-05-23T18:12:28.829Z,21.60
2019-05-23T18:15:01.840Z,21.47
2019-05-23T18:17:35.398Z,21.38
2019-05-23T18:20:09.262Z,21.31
2019-05-23T18:22:41.695Z,21.14
2019-05-23T18:25:19.317Z,21.07
2019-05-23T18:27:52.328Z,20.66
2019-05-23T18:30:30.621Z,20.61
2019-05-23T18:33:04.299Z,20.61
2019-05-23T18:35:37.329Z,20.36
2019-05-23T18:38:10.324Z,20.36
2019-05-23T18:40:59.999Z,20.26
2019-05-23T18:43:18.936Z,20.09
2019-05-23T18:45:55.628Z,19.94
2019-05-23T18:48:28.599Z,19.86
2019-05-23T18:51:01.808Z,19.74
2019-05-23T18:53:35.521Z,19.57
2019-05-23T18:56:08.869Z,19.49
2019-05-23T18:58:41.693Z,19.28
2019-05-23T19:01:16.400Z,19.14
2019-05-23T19:03:49.666Z,19.01
2019-05-23T19:06:22.554Z,18.86
2019-05-23T19:08:57.458Z,18.79
2019-05-23T19:14:21.008Z,18.64
2019-05-23T19:16:54.452Z,18.42
2019-05-23T19:19:27.321Z,18.27
2019-05-23T19:22:02.217Z,18.09
2019-05-23T19:24:34.935Z,18.09
2019-05-23T19:27:07.724Z,17.99
2019-05-23T19:29:41.642Z,17.87
2019-05-23T19:32:15.315Z,17.72
2019-05-23T19:34:48.643Z,17.71
2019-05-23T19:37:21.402Z,17.60
2019-05-23T19:39:54.313Z,17.42
2019-05-23T19:42:27.549Z,17.18
2019-05-23T19:45:02.679Z,17.18
2019-05-23T19:47:35.430Z,17.23
2019-05-23T19:50:09.333Z,17.07
2019-05-23T19:52:40.696Z,16.97
2019-05-23T19:55:13.895Z,16.96
2019-05-23T19:57:46.780Z,16.85
2019-05-23T20:00:21.845Z,16.72
2019-05-23T20:02:58.836Z,16.58
2019-05-23T20:05:34.442Z,16.50
2019-05-23T20:08:08.780Z,16.35
2019-05-23T20:10:41.349Z,16.29
2019-05-23T20:13:13.285Z,16.15
2019-05-23T20:15:46.319Z,16.04
2019-05-23T20:18:19.387Z,15.93
2019-05-23T20:20:52.775Z,15.88
2019-05-23T20:23:25.806Z,15.75
2019-05-23T20:25:58.665Z,15.69
2019-05-23T20:28:32.502Z,15.57
2019-05-23T20:31:07.058Z,15.46
2019-05-23T20:33:40.068Z,15.43
2019-05-23T20:36:15.928Z,15.33
2019-05-23T20:38:52.291Z,15.16
2019-05-23T20:41:27.323Z,15.16
2019-05-23T20:46:43.352Z,14.95
2019-05-23T20:49:16.063Z,14.74
2019-05-23T20:51:50.491Z,14.82
2019-05-23T20:54:23.630Z,14.82
2019-05-23T20:56:56.302Z,14.67
2019-05-23T20:59:32.437Z,14.63
2019-05-23T21:02:05.768Z,14.63
2019-05-23T21:04:38.375Z,14.56
2019-05-23T21:07:11.428Z,14.31
2019-05-23T21:09:44.165Z,14.31
2019-05-23T21:12:29.712Z,14.24
2019-05-23T21:14:51.379Z,14.12
2019-05-23T21:17:36.481Z,13.82
2019-05-23T21:20:09.671Z,13.82
2019-05-23T21:22:42.320Z,13.99
2019-05-23T21:25:15.275Z,13.78
2019-05-23T21:27:48.304Z,13.78
2019-05-23T21:30:21.354Z,13.63
2019-05-23T21:32:53.886Z,13.63
2019-05-23T21:35:26.582Z,13.63
2019-05-23T21:37:59.491Z,13.52
2019-05-23T21:40:41.579Z,13.39
2019-05-23T21:43:14.706Z,13.39
2019-05-23T21:45:49.344Z,13.30
2019-05-23T21:48:24.366Z,13.26
2019-05-23T21:50:56.873Z,13.19
2019-05-23T21:53:29.443Z,13.16
2019-05-23T21:56:03.318Z,13.06
2019-05-23T21:58:36.307Z,12.86
2019-05-23T22:01:09.820Z,12.79
2019-05-23T22:03:52.738Z,12.79
2019-05-23T22:06:31.500Z,12.74
2019-05-23T22:09:05.621Z,12.70
2019-05-23T22:11:38.527Z,12.66
2019-05-23T22:14:11.328Z,12.63
2019-05-23T22:16:44.315Z,12.52
2019-05-23T22:19:18.804Z,12.49
2019-05-23T22:21:51.492Z,12.49
2019-05-23T22:24:23.427Z,12.43
2019-05-23T22:26:55.985Z,12.29
2019-05-23T22:29:28.811Z,12.29
2019-05-23T22:32:03.378Z,12.23
2019-05-23T22:35:29.594Z,12.17
2019-05-23T22:38:03.390Z,12.06
2019-05-23T22:40:38.278Z,12.02
2019-05-23T22:43:20.686Z,11.93
2019-05-23T22:45:48.300Z,11.87
2019-05-23T22:48:21.467Z,11.85
2019-05-23T22:50:54.049Z,11.76
2019-05-23T22:53:27.752Z,11.76
2019-05-23T22:56:01.716Z,11.70
2019-05-23T22:58:34.280Z,11.61
2019-05-23T23:01:06.868Z,11.65
2019-05-23T23:03:40.367Z,11.61
2019-05-23T23:06:19.325Z,11.52
2019-05-23T23:08:51.754Z,11.42
2019-05-23T23:11:24.309Z,11.42
2019-05-23T23:13:56.774Z,11.31
2019-05-23T23:16:29.307Z,11.31
2019-05-23T23:19:03.724Z,11.12
2019-05-23T23:21:36.461Z,11.12
2019-05-23T23:24:08.881Z,11.26
2019-05-23T23:26:41.435Z,11.22
2019-05-23T23:29:14.349Z,11.13
2019-05-23T23:31:47.262Z,11.06
2019-05-23T23:34:19.616Z,11.02
2019-05-23T23:36:52.027Z,11.08
2019-05-23T23:39:24.765Z,10.97
2019-05-23T23:41:59.563Z,10.97
2019-05-23T23:44:35.354Z,10.89
2019-05-23T23:47:26.462Z,10.88
2019-05-23T23:50:16.702Z,10.84
2019-05-23T23:53:07.295Z,10.78
2019-05-23T23:55:57.462Z,10.73
2019-05-23T23:58:28.708Z,10.73
